createdAt,value
2023-06-17T00:00:54.486Z,3.00
2023-06-17T00:03:22.419Z,3.30
2023-06-17T00:05:50.346Z,3.22
2023-06-17T00:08:18.271Z,3.25
2023-06-17T00:10:46.600Z,3.20
2023-06-17T00:13:20.360Z,2.85
2023-06-17T00:15:51.844Z,2.83
2023-06-17T00:18:23.476Z,3.10
2023-06-17T00:20:53.949Z,3.30
2023-06-17T00:23:22.447Z,3.05
2023-06-17T00:25:51.080Z,3.00
2023-06-17T00:28:19.177Z,3.05
2023-06-17T00:30:47.786Z,3.40
2023-06-17T00:33:15.937Z,3.00
2023-06-17T00:35:45.298Z,2.90
2023-06-17T00:38:13.252Z,3.00
2023-06-17T00:40:41.120Z,3.20
2023-06-17T00:43:09.062Z,3.25
2023-06-17T00:45:40.299Z,3.58
2023-06-17T00:48:11.108Z,2.90
2023-06-17T00:50:40.536Z,3.13
2023-06-17T00:53:09.766Z,3.08
2023-06-17T00:55:37.945Z,3.08
2023-06-17T00:58:07.412Z,3.42
2023-06-17T01:00:35.334Z,3.80
2023-06-17T01:03:03.956Z,3.60
2023-06-17T01:05:34.010Z,3.45
2023-06-17T01:08:15.584Z,3.33
2023-06-17T01:10:51.144Z,3.33
2023-06-17T01:13:20.154Z,3.08
2023-06-17T01:15:49.448Z,3.55
2023-06-17T01:18:21.053Z,3.38
2023-06-17T01:20:55.176Z,3.37
2023-06-17T01:23:33.116Z,3.53
2023-06-17T01:26:03.333Z,3.38
2023-06-17T01:28:31.755Z,3.25
2023-06-17T01:31:00.688Z,3.63
2023-06-17T01:33:28.856Z,3.40
2023-06-17T01:36:14.692Z,3.45
2023-06-17T01:38:46.220Z,3.50
2023-06-17T01:41:19.578Z,3.13
2023-06-17T01:43:50.474Z,3.72
2023-06-17T01:46:19.137Z,3.70
2023-06-17T01:48:47.438Z,3.50
2023-06-17T01:51:15.368Z,3.85
2023-06-17T01:53:43.219Z,3.80
2023-06-17T01:56:11.355Z,4.13
2023-06-17T01:58:41.003Z,4.57
2023-06-17T02:01:08.954Z,4.43
2023-06-17T02:03:37.062Z,4.20
2023-06-17T02:06:05.150Z,4.22
2023-06-17T02:08:35.540Z,3.85
2023-06-17T02:11:04.074Z,3.88
2023-06-17T02:13:32.062Z,3.80
2023-06-17T02:16:02.332Z,3.95
2023-06-17T02:18:33.554Z,3.85
2023-06-17T02:21:02.589Z,3.65
2023-06-17T02:23:30.631Z,3.72
2023-06-17T02:25:58.729Z,3.88
2023-06-17T02:28:26.846Z,4.03
2023-06-17T02:30:55.156Z,4.10
2023-06-17T02:33:24.722Z,3.50
2023-06-17T02:35:52.597Z,4.13
2023-06-17T02:38:20.562Z,4.07
2023-06-17T02:40:48.952Z,3.50
2023-06-17T02:43:16.743Z,3.40
2023-06-17T02:45:44.599Z,3.88
2023-06-17T02:48:13.840Z,3.80
2023-06-17T02:50:43.358Z,3.65
2023-06-17T02:53:11.723Z,3.97
2023-06-17T02:55:40.180Z,3.78
2023-06-17T02:58:16.735Z,3.40
2023-06-17T03:00:47.301Z,3.92
2023-06-17T03:03:15.732Z,3.95
2023-06-17T03:05:46.090Z,3.55
2023-06-17T03:08:16.424Z,3.58
2023-06-17T03:10:44.522Z,3.72
2023-06-17T03:13:14.775Z,3.63
2023-06-17T03:15:46.981Z,3.95
2023-06-17T03:18:15.073Z,3.97
2023-06-17T03:20:44.557Z,4.10
2023-06-17T03:23:12.605Z,4.10
2023-06-17T03:25:40.734Z,3.95
2023-06-17T03:28:08.765Z,4.15
2023-06-17T03:30:37.070Z,4.50
2023-06-17T03:33:05.849Z,4.38
2023-06-17T03:35:34.583Z,4.00
2023-06-17T03:38:04.527Z,4.25
2023-06-17T03:40:32.550Z,4.30
2023-06-17T03:43:02.333Z,4.32
2023-06-17T03:45:31.876Z,4.50
2023-06-17T03:48:01.631Z,4.28
2023-06-17T03:50:30.958Z,3.97
2023-06-17T03:52:58.806Z,4.07
2023-06-17T03:55:28.126Z,3.97
2023-06-17T03:57:57.507Z,4.40
2023-06-17T04:00:28.501Z,3.90
2023-06-17T04:02:56.691Z,4.30
2023-06-17T04:05:34.418Z,4.90
2023-06-17T04:08:03.863Z,4.17
2023-06-17T04:10:33.290Z,4.25
2023-06-17T04:13:01.133Z,4.20
2023-06-17T04:15:29.053Z,4.25
2023-06-17T04:17:58.464Z,4.38
2023-06-17T04:20:27.755Z,4.25
2023-06-17T04:22:55.684Z,4.30
2023-06-17T04:25:24.041Z,4.40
2023-06-17T04:27:57.362Z,4.72
2023-06-17T04:30:27.364Z,4.97
2023-06-17T04:32:59.580Z,4.95
2023-06-17T04:35:28.048Z,4.50
2023-06-17T04:37:56.796Z,4.78
2023-06-17T04:40:25.971Z,4.38
2023-06-17T04:42:54.320Z,4.05
2023-06-17T04:45:26.077Z,4.65
2023-06-17T04:47:59.034Z,4.72
2023-06-17T04:50:27.004Z,4.93
2023-06-17T04:52:55.614Z,4.70
2023-06-17T04:55:26.821Z,4.45
2023-06-17T04:57:54.963Z,4.30
2023-06-17T05:00:44.458Z,4.15
2023-06-17T05:03:16.408Z,4.53
2023-06-17T05:05:44.436Z,3.92
2023-06-17T05:08:12.891Z,4.68
2023-06-17T05:10:40.783Z,4.72
2023-06-17T05:13:08.929Z,4.75
2023-06-17T05:15:37.000Z,5.35
2023-06-17T05:18:06.604Z,4.55
2023-06-17T05:20:34.672Z,4.82
2023-06-17T05:23:02.622Z,4.93
2023-06-17T05:25:30.541Z,4.72
2023-06-17T05:27:58.369Z,4.72
2023-06-17T05:30:29.397Z,4.80
2023-06-17T05:32:59.873Z,5.00
2023-06-17T05:35:29.787Z,4.88
2023-06-17T05:37:58.773Z,5.00
2023-06-17T05:40:26.735Z,4.47
2023-06-17T05:42:54.831Z,4.47
2023-06-17T05:45:22.998Z,4.70
2023-06-17T05:47:51.663Z,4.25
2023-06-17T05:50:20.092Z,4.60
2023-06-17T05:52:49.474Z,4.50
2023-06-17T05:55:17.743Z,4.63
2023-06-17T05:57:46.065Z,4.32
2023-06-17T06:00:15.790Z,4.38
2023-06-17T06:02:44.882Z,4.30
2023-06-17T06:05:13.501Z,4.57
2023-06-17T06:07:42.280Z,4.15
2023-06-17T06:10:12.570Z,4.47
2023-06-17T06:12:44.581Z,4.68
2023-06-17T06:15:12.544Z,4.22
2023-06-17T06:17:40.366Z,4.07
2023-06-17T06:20:09.212Z,4.50
2023-06-17T06:22:37.071Z,4.18
2023-06-17T06:25:06.861Z,4.10
2023-06-17T06:27:37.259Z,4.05
2023-06-17T06:30:07.598Z,4.32
2023-06-17T06:32:40.038Z,4.28
2023-06-17T06:35:08.374Z,4.45
2023-06-17T06:37:36.439Z,4.60
2023-06-17T06:40:06.471Z,3.97
2023-06-17T06:42:38.734Z,4.88
2023-06-17T06:45:20.974Z,4.72
2023-06-17T06:47:48.886Z,4.45
2023-06-17T06:50:16.779Z,4.50
2023-06-17T06:52:47.247Z,4.57
2023-06-17T06:55:15.701Z,4.47
2023-06-17T06:57:45.997Z,4.18
2023-06-17T07:00:15.915Z,4.93
2023-06-17T07:02:44.678Z,4.30
2023-06-17T07:05:12.637Z,3.92
2023-06-17T07:07:47.413Z,4.28
2023-06-17T07:10:15.512Z,4.43
2023-06-17T07:12:45.044Z,4.35
2023-06-17T07:15:14.238Z,4.40
2023-06-17T07:17:42.238Z,4.20
2023-06-17T07:20:10.637Z,4.55
2023-06-17T07:22:40.525Z,4.38
2023-06-17T07:25:09.159Z,4.40
2023-06-17T07:27:37.000Z,3.65
2023-06-17T07:30:08.066Z,4.20
2023-06-17T07:32:36.289Z,4.00
2023-06-17T07:35:04.966Z,3.88
2023-06-17T07:37:33.136Z,3.92
2023-06-17T07:40:02.278Z,3.92
2023-06-17T07:42:30.242Z,4.00
2023-06-17T07:44:58.073Z,3.38
2023-06-17T07:47:27.623Z,3.50
2023-06-17T07:49:55.526Z,3.47
2023-06-17T07:52:23.487Z,3.95
2023-06-17T07:54:52.212Z,3.83
2023-06-17T07:57:20.061Z,3.55
2023-06-17T07:59:47.908Z,4.00
2023-06-17T08:02:15.929Z,3.72
2023-06-17T08:04:46.343Z,3.70
2023-06-17T08:07:14.276Z,3.65
2023-06-17T08:09:42.187Z,3.67
2023-06-17T08:12:10.721Z,3.63
2023-06-17T08:14:38.532Z,3.45
2023-06-17T08:17:07.491Z,3.58
2023-06-17T08:19:35.601Z,3.38
2023-06-17T08:22:05.465Z,3.63
2023-06-17T08:24:33.650Z,3.40
2023-06-17T08:27:01.867Z,3.25
2023-06-17T08:29:29.760Z,3.28
2023-06-17T08:31:57.598Z,3.42
2023-06-17T08:34:25.807Z,3.70
2023-06-17T08:36:54.894Z,3.22
2023-06-17T08:39:24.321Z,3.50
2023-06-17T08:41:52.827Z,3.45
2023-06-17T08:44:23.741Z,3.50
2023-06-17T08:46:52.760Z,3.67
2023-06-17T08:49:21.176Z,3.35
2023-06-17T08:51:51.977Z,3.53
2023-06-17T08:54:21.476Z,4.03
2023-06-17T08:56:50.835Z,3.47
2023-06-17T08:59:18.738Z,3.20
2023-06-17T09:01:47.310Z,3.40
2023-06-17T09:04:16.282Z,3.47
2023-06-17T09:06:45.541Z,2.92
2023-06-17T09:09:14.055Z,2.90
2023-06-17T09:11:45.386Z,3.03
2023-06-17T09:14:14.684Z,3.22
2023-06-17T09:16:42.735Z,3.10
2023-06-17T09:19:11.106Z,3.50
2023-06-17T09:21:38.978Z,2.83
2023-06-17T09:24:08.468Z,2.97
2023-06-17T09:26:41.617Z,3.03
2023-06-17T09:29:11.552Z,3.40
2023-06-17T09:31:51.596Z,3.45
2023-06-17T09:34:19.977Z,3.03
2023-06-17T09:36:48.766Z,3.47
2023-06-17T09:39:16.695Z,3.28
2023-06-17T09:41:45.871Z,3.15
2023-06-17T09:44:15.107Z,3.47
2023-06-17T09:46:50.780Z,3.00
2023-06-17T09:49:24.667Z,3.20
2023-06-17T09:51:53.866Z,3.88
2023-06-17T09:54:22.233Z,3.40
2023-06-17T09:56:51.731Z,3.15
2023-06-17T09:59:22.910Z,3.20
2023-06-17T10:01:54.078Z,3.22
2023-06-17T10:04:22.284Z,3.27
2023-06-17T10:06:52.587Z,3.10
2023-06-17T10:09:20.687Z,3.47
2023-06-17T10:11:52.807Z,3.58
2023-06-17T10:14:26.113Z,3.55
2023-06-17T10:16:56.768Z,3.55
2023-06-17T10:19:28.304Z,3.60
2023-06-17T10:21:58.200Z,3.42
2023-06-17T10:24:28.583Z,3.42
2023-06-17T10:26:56.788Z,3.67
2023-06-17T10:29:24.620Z,3.42
2023-06-17T10:31:52.494Z,3.63
2023-06-17T10:34:24.335Z,3.40
2023-06-17T10:39:20.786Z,3.20
2023-06-17T10:42:00.555Z,3.40
2023-06-17T10:44:44.499Z,3.65
2023-06-17T10:47:22.452Z,3.10
2023-06-17T10:49:54.884Z,3.28
2023-06-17T10:52:22.845Z,3.47
2023-06-17T10:54:55.369Z,3.33
2023-06-17T10:57:34.293Z,3.50
2023-06-17T11:00:07.499Z,3.80
2023-06-17T11:02:35.717Z,3.35
2023-06-17T11:05:05.447Z,3.60
2023-06-17T11:07:34.716Z,3.78
2023-06-17T11:10:03.418Z,3.47
2023-06-17T11:12:31.440Z,3.63
2023-06-17T11:15:01.114Z,3.60
2023-06-17T11:17:29.496Z,3.30
2023-06-17T11:19:57.372Z,3.40
2023-06-17T11:22:26.694Z,3.15
2023-06-17T11:24:56.849Z,3.30
2023-06-17T11:27:25.093Z,3.50
2023-06-17T11:29:53.737Z,3.08
2023-06-17T11:32:22.519Z,3.15
2023-06-17T11:34:52.195Z,3.28
2023-06-17T11:37:22.368Z,3.00
2023-06-17T11:39:51.685Z,3.45
2023-06-17T11:42:19.658Z,3.00
2023-06-17T11:44:47.665Z,2.90
2023-06-17T11:47:15.840Z,3.20
2023-06-17T11:49:43.963Z,3.30
2023-06-17T11:52:13.005Z,3.03
2023-06-17T11:54:48.318Z,3.30
2023-06-17T11:57:20.191Z,3.00
2023-06-17T11:59:48.368Z,2.70
2023-06-17T12:02:17.451Z,2.97
2023-06-17T12:04:45.996Z,3.00
2023-06-17T12:07:14.171Z,2.92
2023-06-17T12:09:52.108Z,3.33
2023-06-17T12:12:33.505Z,3.30
2023-06-17T12:15:15.046Z,2.83
2023-06-17T12:17:46.519Z,2.97
2023-06-17T12:20:16.666Z,2.92
2023-06-17T12:22:44.629Z,2.97
2023-06-17T12:25:13.400Z,2.83
2023-06-17T12:27:43.945Z,2.70
2023-06-17T12:30:13.053Z,2.92
2023-06-17T12:32:41.646Z,3.10
2023-06-17T12:35:11.053Z,2.92
2023-06-17T12:37:42.110Z,3.10
2023-06-17T12:40:10.959Z,3.05
2023-06-17T12:42:39.706Z,2.90
2023-06-17T12:45:10.383Z,3.20
2023-06-17T12:47:38.867Z,2.97
2023-06-17T12:50:08.020Z,3.00
2023-06-17T12:52:37.277Z,3.15
2023-06-17T12:55:06.675Z,2.90
2023-06-17T12:57:35.309Z,3.13
2023-06-17T13:00:06.093Z,3.00
2023-06-17T13:02:36.905Z,3.07
2023-06-17T13:05:06.460Z,2.72
2023-06-17T13:07:34.533Z,2.88
2023-06-17T13:10:02.430Z,2.95
2023-06-17T13:12:30.314Z,2.75
2023-06-17T13:14:58.250Z,3.08
2023-06-17T13:17:26.131Z,3.30
2023-06-17T13:19:55.595Z,2.70
2023-06-17T13:22:23.420Z,2.83
2023-06-17T13:24:52.219Z,2.83
2023-06-17T13:27:20.365Z,3.00
2023-06-17T13:29:48.443Z,3.17
2023-06-17T13:32:19.318Z,2.90
2023-06-17T13:34:47.973Z,2.97
2023-06-17T13:37:17.254Z,3.00
2023-06-17T13:39:46.002Z,2.85
2023-06-17T13:42:13.925Z,2.97
2023-06-17T13:44:42.144Z,3.15
2023-06-17T13:47:10.074Z,3.15
2023-06-17T13:49:38.097Z,3.50
2023-06-17T13:52:08.392Z,3.10
2023-06-17T13:54:37.951Z,3.00
2023-06-17T13:57:06.371Z,3.13
2023-06-17T13:59:34.327Z,3.47
2023-06-17T14:02:02.198Z,3.30
2023-06-17T14:04:30.481Z,3.03
2023-06-17T14:06:58.532Z,2.90
2023-06-17T14:09:26.464Z,3.13
2023-06-17T14:11:55.769Z,3.20
2023-06-17T14:14:23.654Z,3.22
2023-06-17T14:16:51.560Z,3.20
2023-06-17T14:19:21.861Z,3.50
2023-06-17T14:21:57.731Z,3.40
2023-06-17T14:24:25.578Z,3.20
2023-06-17T14:27:35.665Z,3.40
2023-06-17T14:30:06.658Z,3.28
2023-06-17T14:32:34.633Z,3.37
2023-06-17T14:35:02.481Z,3.00
2023-06-17T14:37:30.980Z,3.15
2023-06-17T14:39:58.881Z,3.40
2023-06-17T14:42:26.857Z,3.08
2023-06-17T14:44:54.721Z,3.20
2023-06-17T14:47:24.195Z,3.63
2023-06-17T14:49:52.172Z,3.35
2023-06-17T14:52:20.203Z,3.50
2023-06-17T14:54:48.018Z,3.28
2023-06-17T14:57:15.870Z,3.40
2023-06-17T14:59:43.728Z,3.58
2023-06-17T15:02:25.314Z,3.15
2023-06-17T15:04:54.729Z,3.28
2023-06-17T15:07:22.569Z,3.58
2023-06-17T15:09:50.513Z,3.60
2023-06-17T15:12:18.316Z,3.17
2023-06-17T15:14:49.360Z,3.22
2023-06-17T15:17:17.351Z,2.88
2023-06-17T15:19:45.314Z,3.42
2023-06-17T15:22:14.846Z,3.55
2023-06-17T15:24:42.679Z,3.70
2023-06-17T15:27:10.610Z,3.40
2023-06-17T15:29:38.386Z,3.53
2023-06-17T15:32:07.341Z,3.58
2023-06-17T15:34:35.168Z,3.90
2023-06-17T15:37:03.263Z,3.35
2023-06-17T15:39:33.551Z,3.40
2023-06-17T15:42:01.406Z,4.22
2023-06-17T15:44:29.239Z,4.22
2023-06-17T15:46:57.108Z,3.80
2023-06-17T15:49:24.942Z,3.70
2023-06-17T15:51:52.834Z,3.42
2023-06-17T15:54:26.336Z,3.60
2023-06-17T15:56:55.585Z,3.53
2023-06-17T15:59:23.730Z,3.40
2023-06-17T16:01:51.940Z,3.50
2023-06-17T16:04:34.473Z,3.20
2023-06-17T16:07:06.104Z,3.47
2023-06-17T16:09:36.040Z,3.75
2023-06-17T16:12:06.766Z,4.15
2023-06-17T16:14:36.953Z,3.70
2023-06-17T16:17:07.665Z,3.20
2023-06-17T16:19:37.153Z,3.47
2023-06-17T16:22:07.068Z,3.60
2023-06-17T16:24:35.841Z,3.53
2023-06-17T16:27:05.941Z,3.55
2023-06-17T16:29:34.577Z,3.45
2023-06-17T16:32:03.021Z,3.53
2023-06-17T16:34:31.553Z,3.60
2023-06-17T16:37:00.059Z,3.83
2023-06-17T16:39:28.682Z,3.50
2023-06-17T16:41:57.512Z,3.20
2023-06-17T16:44:27.494Z,3.72
2023-06-17T16:46:55.594Z,3.65
2023-06-17T16:49:23.593Z,3.60
2023-06-17T16:51:51.579Z,3.85
2023-06-17T16:54:19.440Z,3.80
2023-06-17T16:56:47.267Z,3.83
2023-06-17T16:59:15.257Z,3.67
2023-06-17T17:01:44.465Z,3.40
2023-06-17T17:04:14.530Z,3.50
2023-06-17T17:06:43.844Z,3.15
2023-06-17T17:09:11.722Z,3.05
2023-06-17T17:11:39.571Z,3.17
2023-06-17T17:14:07.874Z,3.88
2023-06-17T17:16:36.401Z,3.10
2023-06-17T17:19:06.021Z,3.58
2023-06-17T17:21:35.008Z,3.20
2023-06-17T17:24:05.784Z,3.38
2023-06-17T17:26:34.502Z,3.35
2023-06-17T17:29:03.639Z,3.30
2023-06-17T17:31:31.638Z,3.30
2023-06-17T17:33:59.432Z,3.38
2023-06-17T17:36:28.692Z,3.50
2023-06-17T17:38:56.645Z,3.30
2023-06-17T17:41:24.828Z,3.47
2023-06-17T17:43:52.631Z,3.30
2023-06-17T17:46:20.608Z,3.35
2023-06-17T17:48:48.682Z,3.72
2023-06-17T17:51:17.926Z,3.53
2023-06-17T17:53:47.205Z,3.60
2023-06-17T17:56:15.070Z,3.50
2023-06-17T17:58:43.296Z,3.67
2023-06-17T18:01:11.185Z,129.98
2023-06-17T18:03:39.289Z,104.65
2023-06-17T18:06:07.956Z,91.78
2023-06-17T18:08:36.163Z,122.50
2023-06-17T18:11:05.472Z,114.07
2023-06-17T18:13:33.392Z,77.85
2023-06-17T18:16:01.542Z,70.03
2023-06-17T18:18:29.440Z,82.78
2023-06-17T18:20:57.336Z,59.00
2023-06-17T18:23:25.635Z,77.15
2023-06-17T18:25:53.559Z,47.90
2023-06-17T18:28:22.776Z,91.95
2023-06-17T18:30:50.727Z,165.00
2023-06-17T18:33:18.566Z,275.58
2023-06-17T18:35:46.392Z,350.67
2023-06-17T18:38:14.390Z,162.80
2023-06-17T18:40:42.434Z,153.45
2023-06-17T18:43:10.443Z,100.28
2023-06-17T18:45:39.787Z,88.60
2023-06-17T18:48:07.756Z,57.15
2023-06-17T18:50:37.165Z,36.85
2023-06-17T18:53:05.173Z,31.00
2023-06-17T18:55:33.859Z,17.83
2023-06-17T18:58:02.101Z,19.13
2023-06-17T19:00:32.060Z,15.68
2023-06-17T19:03:02.791Z,12.90
2023-06-17T19:05:30.894Z,9.18
2023-06-17T19:07:58.763Z,8.98
2023-06-17T19:10:26.602Z,9.07
2023-06-17T19:12:54.448Z,6.85
2023-06-17T19:15:22.762Z,7.18
2023-06-17T19:17:58.767Z,6.63
2023-06-17T19:20:28.171Z,6.32
2023-06-17T19:22:56.108Z,5.00
2023-06-17T19:25:24.104Z,5.00
2023-06-17T19:27:52.024Z,5.15
2023-06-17T19:30:20.269Z,5.38
2023-06-17T19:32:48.657Z,5.20
2023-06-17T19:35:16.690Z,5.35
2023-06-17T19:37:45.852Z,5.50
2023-06-17T19:40:14.388Z,5.93
2023-06-17T19:42:42.352Z,6.40
2023-06-17T19:45:11.936Z,6.00
2023-06-17T19:47:39.906Z,5.50
2023-06-17T19:50:08.781Z,5.75
2023-06-17T19:52:36.680Z,5.32
2023-06-17T19:55:07.146Z,4.88
2023-06-17T19:57:35.036Z,5.13
2023-06-17T20:00:04.102Z,5.38
2023-06-17T20:02:40.096Z,5.50
2023-06-17T20:05:09.618Z,5.10
2023-06-17T20:07:37.549Z,5.50
2023-06-17T20:10:07.653Z,5.63
2023-06-17T20:12:35.671Z,5.75
2023-06-17T20:15:03.614Z,5.70
2023-06-17T20:17:31.504Z,5.95
2023-06-17T20:19:59.468Z,6.15
2023-06-17T20:22:27.335Z,6.15
2023-06-17T20:24:55.254Z,6.28
2023-06-17T20:27:24.549Z,6.82
2023-06-17T20:29:52.407Z,5.97
2023-06-17T20:32:20.592Z,6.57
2023-06-17T20:34:48.653Z,6.55
2023-06-17T20:37:16.789Z,6.38
2023-06-17T20:39:44.716Z,6.88
2023-06-17T20:42:13.227Z,6.47
2023-06-17T20:44:42.771Z,6.18
2023-06-17T20:47:10.908Z,5.97
2023-06-17T20:49:38.955Z,5.65
2023-06-17T20:52:07.201Z,6.00
2023-06-17T20:54:35.126Z,5.55
2023-06-17T20:57:03.332Z,5.93
2023-06-17T20:59:31.184Z,5.53
2023-06-17T21:02:00.589Z,6.47
2023-06-17T21:04:28.513Z,6.10
2023-06-17T21:06:56.454Z,6.38
2023-06-17T21:09:24.882Z,6.40
2023-06-17T21:11:53.509Z,6.47
2023-06-17T21:14:21.882Z,6.53
2023-06-17T21:16:49.778Z,6.00
2023-06-17T21:19:19.034Z,6.07
2023-06-17T21:21:46.870Z,6.15
2023-06-17T21:24:14.806Z,6.93
2023-06-17T21:26:42.684Z,7.47
2023-06-17T21:29:10.656Z,6.95
2023-06-17T21:31:38.607Z,7.40
2023-06-17T21:34:06.593Z,7.47
2023-06-17T21:36:36.691Z,6.97
2023-06-17T21:39:04.787Z,6.40
2023-06-17T21:41:32.928Z,6.78
2023-06-17T21:44:00.863Z,7.07
2023-06-17T21:46:29.153Z,7.53
2023-06-17T21:48:58.295Z,7.18
2023-06-17T21:51:26.217Z,6.93
2023-06-17T21:53:55.560Z,6.47
2023-06-17T21:56:23.457Z,7.03
2023-06-17T21:58:51.305Z,7.13
2023-06-17T22:01:19.232Z,7.78
2023-06-17T22:03:47.268Z,7.70
2023-06-17T22:06:15.311Z,7.15
2023-06-17T22:08:44.144Z,6.78
2023-06-17T22:11:13.704Z,6.75
2023-06-17T22:13:41.712Z,6.88
2023-06-17T22:16:09.692Z,7.50
2023-06-17T22:18:37.588Z,7.90
2023-06-17T22:21:07.178Z,7.60
2023-06-17T22:23:35.472Z,7.45
2023-06-17T22:26:03.577Z,6.97
2023-06-17T22:28:37.158Z,7.13
2023-06-17T22:31:05.965Z,7.35
2023-06-17T22:33:35.613Z,7.07
2023-06-17T22:36:04.887Z,7.03
2023-06-17T22:38:33.002Z,7.55
2023-06-17T22:41:01.212Z,7.40
2023-06-17T22:43:29.216Z,8.05
2023-06-17T22:45:58.992Z,7.45
2023-06-17T22:48:28.735Z,7.07
2023-06-17T22:50:59.674Z,7.90
2023-06-17T22:53:30.491Z,7.40
2023-06-17T22:55:58.465Z,7.35
2023-06-17T22:58:26.776Z,7.20
2023-06-17T23:00:56.212Z,7.25
2023-06-17T23:03:25.616Z,6.93
2023-06-17T23:05:53.770Z,7.00
2023-06-17T23:08:21.591Z,7.00
2023-06-17T23:10:49.466Z,6.45
2023-06-17T23:13:17.468Z,6.63
2023-06-17T23:15:45.841Z,7.05
2023-06-17T23:18:13.723Z,7.10
2023-06-17T23:20:44.961Z,7.18
2023-06-17T23:23:12.877Z,7.70
2023-06-17T23:25:40.812Z,6.63
2023-06-17T23:28:09.778Z,6.82
2023-06-17T23:30:38.849Z,6.63
2023-06-17T23:33:06.906Z,7.07
2023-06-17T23:35:35.169Z,7.05
2023-06-17T23:38:05.137Z,7.50
2023-06-17T23:40:33.241Z,7.22
2023-06-17T23:43:01.314Z,7.20
2023-06-17T23:45:30.591Z,7.53
2023-06-17T23:47:58.541Z,7.03
2023-06-17T23:50:26.391Z,6.53
2023-06-17T23:52:54.198Z,7.07
2023-06-17T23:55:23.357Z,6.75
2023-06-17T23:57:51.233Z,6.18
